sensor_id;sensor_type;location;lat;lon;timestamp;temperature;humidity
36458;DHT22;22480;50.546;12.292;2022-12-11T00:00:16;-2.90;99.90
36458;DHT22;22480;50.546;12.292;2022-12-11T00:02:42;-2.80;99.90
36458;DHT22;22480;50.546;12.292;2022-12-11T00:05:08;-2.90;99.90
36458;DHT22;22480;50.546;12.292;2022-12-11T00:07:34;-2.90;99.90
36458;DHT22;22480;50.546;12.292;2022-12-11T00:10:00;-2.80;99.90
36458;DHT22;22480;50.546;12.292;2022-12-11T00:12:25;-2.80;99.90
36458;DHT22;22480;50.546;12.292;2022-12-11T00:14:52;-2.80;99.90
36458;DHT22;22480;50.546;12.292;2022-12-11T00:17:18;-2.90;99.90
36458;DHT22;22480;50.546;12.292;2022-12-11T00:19:44;-2.80;99.90
36458;DHT22;22480;50.546;12.292;2022-12-11T00:22:09;-2.80;99.90
36458;DHT22;22480;50.546;12.292;2022-12-11T00:24:35;-2.90;99.90
36458;DHT22;22480;50.546;12.292;2022-12-11T00:27:01;-2.90;99.90
36458;DHT22;22480;50.546;12.292;2022-12-11T00:29:27;-2.90;99.90
36458;DHT22;22480;50.546;12.292;2022-12-11T00:31:52;-2.90;99.90
36458;DHT22;22480;50.546;12.292;2022-12-11T00:34:18;-2.90;99.90
36458;DHT22;22480;50.546;12.292;2022-12-11T00:36:44;-2.90;99.90
36458;DHT22;22480;50.546;12.292;2022-12-11T00:39:10;-2.90;99.90
36458;DHT22;22480;50.546;12.292;2022-12-11T00:41:35;-2.90;99.90
36458;DHT22;22480;50.546;12.292;2022-12-11T00:44:01;-2.90;99.90
36458;DHT22;22480;50.546;12.292;2022-12-11T00:46:27;-2.90;99.90
36458;DHT22;22480;50.546;12.292;2022-12-11T00:48:53;-2.90;99.90
36458;DHT22;22480;50.546;12.292;2022-12-11T00:51:19;-2.90;99.90
36458;DHT22;22480;50.546;12.292;2022-12-11T00:53:45;-3.00;99.90
36458;DHT22;22480;50.546;12.292;2022-12-11T00:56:12;-3.00;99.90
36458;DHT22;22480;50.546;12.292;2022-12-11T00:58:38;-3.00;99.90
36458;DHT22;22480;50.546;12.292;2022-12-11T01:01:09;-3.00;99.90
36458;DHT22;22480;50.546;12.292;2022-12-11T01:03:35;-3.00;99.90
36458;DHT22;22480;50.546;12.292;2022-12-11T01:06:02;-3.00;99.90
36458;DHT22;22480;50.546;12.292;2022-12-11T01:08:28;-3.00;99.90
36458;DHT22;22480;50.546;12.292;2022-12-11T01:11:02;-3.00;99.90
36458;DHT22;22480;50.546;12.292;2022-12-11T01:13:28;-3.00;99.90
36458;DHT22;22480;50.546;12.292;2022-12-11T01:15:54;-2.90;99.90
36458;DHT22;22480;50.546;12.292;2022-12-11T01:18:20;-3.00;99.90
36458;DHT22;22480;50.546;12.292;2022-12-11T01:20:45;-3.00;99.90
36458;DHT22;22480;50.546;12.292;2022-12-11T01:23:12;-2.90;99.90
36458;DHT22;22480;50.546;12.292;2022-12-11T01:25:38;-3.00;99.90
36458;DHT22;22480;50.546;12.292;2022-12-11T01:28:04;-2.90;99.90
36458;DHT22;22480;50.546;12.292;2022-12-11T01:30:30;-2.90;99.90
36458;DHT22;22480;50.546;12.292;2022-12-11T01:32:56;-2.90;99.90
36458;DHT22;22480;50.546;12.292;2022-12-11T01:35:22;-2.90;99.90
36458;DHT22;22480;50.546;12.292;2022-12-11T01:37:48;-3.00;99.90
36458;DHT22;22480;50.546;12.292;2022-12-11T01:40:16;-3.00;99.90
36458;DHT22;22480;50.546;12.292;2022-12-11T01:42:42;-3.00;99.90
36458;DHT22;22480;50.546;12.292;2022-12-11T01:47:47;-3.00;99.90
36458;DHT22;22480;50.546;12.292;2022-12-11T01:50:14;-3.00;99.90
36458;DHT22;22480;50.546;12.292;2022-12-11T01:52:41;-3.00;99.90
36458;DHT22;22480;50.546;12.292;2022-12-11T01:55:08;-3.10;99.90
36458;DHT22;22480;50.546;12.292;2022-12-11T01:57:36;-3.00;99.90
36458;DHT22;22480;50.546;12.292;2022-12-11T02:00:03;-3.00;99.90
36458;DHT22;22480;50.546;12.292;2022-12-11T02:02:38;-3.10;99.90
36458;DHT22;22480;50.546;12.292;2022-12-11T02:05:06;-3.10;99.90
36458;DHT22;22480;50.546;12.292;2022-12-11T02:07:38;-3.10;99.90
36458;DHT22;22480;50.546;12.292;2022-12-11T02:10:05;-3.10;99.90
36458;DHT22;22480;50.546;12.292;2022-12-11T02:12:53;-3.10;99.90
36458;DHT22;22480;50.546;12.292;2022-12-11T02:15:28;-3.10;99.90
36458;DHT22;22480;50.546;12.292;2022-12-11T02:21:06;-3.10;99.90
36458;DHT22;22480;50.546;12.292;2022-12-11T02:31:37;-3.20;99.90
36458;DHT22;22480;50.546;12.292;2022-12-11T02:36:44;-3.20;99.90
36458;DHT22;22480;50.546;12.292;2022-12-11T02:39:12;-3.30;99.90
36458;DHT22;22480;50.546;12.292;2022-12-11T02:41:43;-3.30;99.90
36458;DHT22;22480;50.546;12.292;2022-12-11T02:44:13;-3.30;99.90
36458;DHT22;22480;50.546;12.292;2022-12-11T02:46:40;-3.30;99.90
36458;DHT22;22480;50.546;12.292;2022-12-11T02:49:07;-3.30;99.90
36458;DHT22;22480;50.546;12.292;2022-12-11T02:51:39;-3.30;99.90
36458;DHT22;22480;50.546;12.292;2022-12-11T02:54:09;-3.30;99.90
36458;DHT22;22480;50.546;12.292;2022-12-11T02:56:47;-3.20;99.90
36458;DHT22;22480;50.546;12.292;2022-12-11T02:59:25;-3.20;99.90
36458;DHT22;22480;50.546;12.292;2022-12-11T03:01:51;-3.20;99.90
36458;DHT22;22480;50.546;12.292;2022-12-11T03:04:17;-3.20;99.90
36458;DHT22;22480;50.546;12.292;2022-12-11T03:06:47;-3.20;99.90
36458;DHT22;22480;50.546;12.292;2022-12-11T03:09:15;-3.20;99.90
36458;DHT22;22480;50.546;12.292;2022-12-11T03:11:41;-3.30;99.90
36458;DHT22;22480;50.546;12.292;2022-12-11T03:14:07;-3.30;99.90
36458;DHT22;22480;50.546;12.292;2022-12-11T03:16:36;-3.30;99.90
36458;DHT22;22480;50.546;12.292;2022-12-11T03:19:23;-3.30;99.90
36458;DHT22;22480;50.546;12.292;2022-12-11T03:22:02;-3.30;99.90
36458;DHT22;22480;50.546;12.292;2022-12-11T03:24:31;-3.30;99.90
36458;DHT22;22480;50.546;12.292;2022-12-11T03:27:03;-3.30;99.90
36458;DHT22;22480;50.546;12.292;2022-12-11T03:29:36;-3.30;99.90
36458;DHT22;22480;50.546;12.292;2022-12-11T03:32:11;-3.30;99.90
36458;DHT22;22480;50.546;12.292;2022-12-11T03:34:42;-3.30;99.90
36458;DHT22;22480;50.546;12.292;2022-12-11T03:37:10;-3.40;99.90
36458;DHT22;22480;50.546;12.292;2022-12-11T03:39:41;-3.30;99.90
36458;DHT22;22480;50.546;12.292;2022-12-11T03:42:10;-3.40;99.90
36458;DHT22;22480;50.546;12.292;2022-12-11T03:44:37;-3.50;99.90
36458;DHT22;22480;50.546;12.292;2022-12-11T03:47:06;-3.50;99.90
36458;DHT22;22480;50.546;12.292;2022-12-11T03:49:36;-3.50;99.90
36458;DHT22;22480;50.546;12.292;2022-12-11T03:52:05;-3.50;99.90
36458;DHT22;22480;50.546;12.292;2022-12-11T03:54:33;-3.50;99.90
36458;DHT22;22480;50.546;12.292;2022-12-11T03:57:01;-3.50;99.90
36458;DHT22;22480;50.546;12.292;2022-12-11T03:59:28;-3.60;99.90
36458;DHT22;22480;50.546;12.292;2022-12-11T04:01:54;-3.60;99.90
36458;DHT22;22480;50.546;12.292;2022-12-11T04:04:20;-3.60;99.90
36458;DHT22;22480;50.546;12.292;2022-12-11T04:06:45;-3.60;99.90
36458;DHT22;22480;50.546;12.292;2022-12-11T04:09:11;-3.70;99.90
36458;DHT22;22480;50.546;12.292;2022-12-11T04:11:37;-3.70;99.90
36458;DHT22;22480;50.546;12.292;2022-12-11T04:14:09;-3.70;99.90
36458;DHT22;22480;50.546;12.292;2022-12-11T04:16:54;-3.70;99.90
36458;DHT22;22480;50.546;12.292;2022-12-11T04:19:21;-3.80;99.90
36458;DHT22;22480;50.546;12.292;2022-12-11T04:22:06;-3.80;99.90
36458;DHT22;22480;50.546;12.292;2022-12-11T04:24:58;-3.80;99.90
36458;DHT22;22480;50.546;12.292;2022-12-11T04:27:24;-3.80;99.90
36458;DHT22;22480;50.546;12.292;2022-12-11T04:30:12;-3.80;99.90
36458;DHT22;22480;50.546;12.292;2022-12-11T04:32:39;-3.80;99.90
36458;DHT22;22480;50.546;12.292;2022-12-11T04:35:07;-3.80;99.90
36458;DHT22;22480;50.546;12.292;2022-12-11T04:37:33;-3.70;99.90
36458;DHT22;22480;50.546;12.292;2022-12-11T04:39:59;-3.70;99.90
36458;DHT22;22480;50.546;12.292;2022-12-11T04:42:25;-3.70;99.90
36458;DHT22;22480;50.546;12.292;2022-12-11T04:44:50;-3.70;99.90
36458;DHT22;22480;50.546;12.292;2022-12-11T04:47:16;-3.70;99.90
36458;DHT22;22480;50.546;12.292;2022-12-11T04:49:42;-3.70;99.90
36458;DHT22;22480;50.546;12.292;2022-12-11T04:52:08;-3.70;99.90
36458;DHT22;22480;50.546;12.292;2022-12-11T04:54:34;-3.70;99.90
36458;DHT22;22480;50.546;12.292;2022-12-11T04:57:00;-3.70;99.90
36458;DHT22;22480;50.546;12.292;2022-12-11T04:59:25;-3.70;99.90
36458;DHT22;22480;50.546;12.292;2022-12-11T05:01:51;-3.70;99.90
36458;DHT22;22480;50.546;12.292;2022-12-11T05:04:17;-3.70;99.90
36458;DHT22;22480;50.546;12.292;2022-12-11T05:06:42;-3.70;99.90
36458;DHT22;22480;50.546;12.292;2022-12-11T05:09:12;-3.70;99.90
36458;DHT22;22480;50.546;12.292;2022-12-11T05:11:37;-3.70;99.90
36458;DHT22;22480;50.546;12.292;2022-12-11T05:14:03;-3.70;99.90
36458;DHT22;22480;50.546;12.292;2022-12-11T05:16:29;-3.70;99.90
36458;DHT22;22480;50.546;12.292;2022-12-11T05:18:55;-3.70;99.90
36458;DHT22;22480;50.546;12.292;2022-12-11T05:21:21;-3.70;99.90
36458;DHT22;22480;50.546;12.292;2022-12-11T05:23:46;-3.70;99.90
36458;DHT22;22480;50.546;12.292;2022-12-11T05:26:18;-3.70;99.90
36458;DHT22;22480;50.546;12.292;2022-12-11T05:28:44;-3.70;99.90
36458;DHT22;22480;50.546;12.292;2022-12-11T05:31:14;-3.60;99.90
36458;DHT22;22480;50.546;12.292;2022-12-11T05:33:40;-3.70;99.90
36458;DHT22;22480;50.546;12.292;2022-12-11T05:36:06;-3.70;99.90
36458;DHT22;22480;50.546;12.292;2022-12-11T05:38:32;-3.70;99.90
36458;DHT22;22480;50.546;12.292;2022-12-11T05:41:06;-3.70;99.90
36458;DHT22;22480;50.546;12.292;2022-12-11T05:43:33;-3.70;99.90
36458;DHT22;22480;50.546;12.292;2022-12-11T05:48:44;-3.80;99.90
36458;DHT22;22480;50.546;12.292;2022-12-11T05:51:11;-3.80;99.90
36458;DHT22;22480;50.546;12.292;2022-12-11T05:53:37;-3.80;99.90
36458;DHT22;22480;50.546;12.292;2022-12-11T05:56:05;-3.80;99.90
36458;DHT22;22480;50.546;12.292;2022-12-11T05:58:32;-3.80;99.90
36458;DHT22;22480;50.546;12.292;2022-12-11T06:00:58;-3.80;99.90
36458;DHT22;22480;50.546;12.292;2022-12-11T06:03:24;-3.80;99.90
36458;DHT22;22480;50.546;12.292;2022-12-11T06:05:50;-3.80;99.90
36458;DHT22;22480;50.546;12.292;2022-12-11T06:08:16;-3.80;99.90
36458;DHT22;22480;50.546;12.292;2022-12-11T06:10:46;-3.80;99.90
36458;DHT22;22480;50.546;12.292;2022-12-11T06:13:12;-3.90;99.90
36458;DHT22;22480;50.546;12.292;2022-12-11T06:15:38;-3.90;99.90
36458;DHT22;22480;50.546;12.292;2022-12-11T06:18:04;-3.90;99.90
36458;DHT22;22480;50.546;12.292;2022-12-11T06:20:31;-3.90;99.90
36458;DHT22;22480;50.546;12.292;2022-12-11T06:22:58;-3.80;99.90
36458;DHT22;22480;50.546;12.292;2022-12-11T06:25:24;-3.90;99.90
36458;DHT22;22480;50.546;12.292;2022-12-11T06:27:50;-3.90;99.90
36458;DHT22;22480;50.546;12.292;2022-12-11T06:30:16;-4.00;99.90
36458;DHT22;22480;50.546;12.292;2022-12-11T06:32:42;-4.00;99.90
36458;DHT22;22480;50.546;12.292;2022-12-11T06:35:08;-4.00;99.90
36458;DHT22;22480;50.546;12.292;2022-12-11T06:37:35;-4.00;99.90
36458;DHT22;22480;50.546;12.292;2022-12-11T06:40:03;-4.00;99.90
36458;DHT22;22480;50.546;12.292;2022-12-11T06:42:30;-4.00;99.90
36458;DHT22;22480;50.546;12.292;2022-12-11T06:44:56;-4.00;99.90
36458;DHT22;22480;50.546;12.292;2022-12-11T06:47:27;-4.10;99.90
36458;DHT22;22480;50.546;12.292;2022-12-11T06:49:54;-4.10;99.90
36458;DHT22;22480;50.546;12.292;2022-12-11T06:52:21;-4.10;99.90
36458;DHT22;22480;50.546;12.292;2022-12-11T06:54:48;-4.10;99.90
36458;DHT22;22480;50.546;12.292;2022-12-11T06:57:14;-4.10;99.90
36458;DHT22;22480;50.546;12.292;2022-12-11T06:59:40;-4.10;99.90
36458;DHT22;22480;50.546;12.292;2022-12-11T07:02:06;-4.10;99.90
36458;DHT22;22480;50.546;12.292;2022-12-11T07:04:32;-4.10;99.90
36458;DHT22;22480;50.546;12.292;2022-12-11T07:06:57;-4.10;99.90
36458;DHT22;22480;50.546;12.292;2022-12-11T07:09:23;-4.10;99.90
36458;DHT22;22480;50.546;12.292;2022-12-11T07:11:50;-4.10;99.90
36458;DHT22;22480;50.546;12.292;2022-12-11T07:14:16;-4.10;99.90
36458;DHT22;22480;50.546;12.292;2022-12-11T07:16:42;-4.10;99.90
36458;DHT22;22480;50.546;12.292;2022-12-11T07:19:07;-4.10;99.90
36458;DHT22;22480;50.546;12.292;2022-12-11T07:21:33;-4.00;99.90
36458;DHT22;22480;50.546;12.292;2022-12-11T07:23:59;-4.10;99.90
36458;DHT22;22480;50.546;12.292;2022-12-11T07:26:25;-4.00;99.90
36458;DHT22;22480;50.546;12.292;2022-12-11T07:28:51;-4.00;99.90
36458;DHT22;22480;50.546;12.292;2022-12-11T07:31:20;-4.00;99.90
36458;DHT22;22480;50.546;12.292;2022-12-11T07:33:46;-4.00;99.90
36458;DHT22;22480;50.546;12.292;2022-12-11T07:36:13;-4.00;99.90
36458;DHT22;22480;50.546;12.292;2022-12-11T07:38:39;-4.00;99.90
36458;DHT22;22480;50.546;12.292;2022-12-11T07:41:09;-4.00;99.90
36458;DHT22;22480;50.546;12.292;2022-12-11T07:43:35;-4.00;99.90
36458;DHT22;22480;50.546;12.292;2022-12-11T07:46:07;-4.00;99.90
36458;DHT22;22480;50.546;12.292;2022-12-11T07:48:37;-4.00;99.90
36458;DHT22;22480;50.546;12.292;2022-12-11T07:51:16;-4.00;99.90
36458;DHT22;22480;50.546;12.292;2022-12-11T07:53:46;-3.90;99.90
36458;DHT22;22480;50.546;12.292;2022-12-11T07:56:14;-3.90;99.90
36458;DHT22;22480;50.546;12.292;2022-12-11T07:58:40;-3.90;99.90
36458;DHT22;22480;50.546;12.292;2022-12-11T08:01:18;-3.90;99.90
36458;DHT22;22480;50.546;12.292;2022-12-11T08:03:44;-3.90;99.90
36458;DHT22;22480;50.546;12.292;2022-12-11T08:06:11;-3.90;99.90
36458;DHT22;22480;50.546;12.292;2022-12-11T08:08:37;-3.90;99.90
36458;DHT22;22480;50.546;12.292;2022-12-11T08:11:11;-4.00;99.90
36458;DHT22;22480;50.546;12.292;2022-12-11T08:13:38;-4.00;99.90
36458;DHT22;22480;50.546;12.292;2022-12-11T08:16:04;-4.00;99.90
36458;DHT22;22480;50.546;12.292;2022-12-11T08:18:33;-4.00;99.90
36458;DHT22;22480;50.546;12.292;2022-12-11T08:21:03;-4.00;99.90
36458;DHT22;22480;50.546;12.292;2022-12-11T08:23:28;-4.00;99.90
36458;DHT22;22480;50.546;12.292;2022-12-11T08:25:54;-4.00;99.90
36458;DHT22;22480;50.546;12.292;2022-12-11T08:28:20;-4.00;99.90
36458;DHT22;22480;50.546;12.292;2022-12-11T08:30:46;-4.00;99.90
36458;DHT22;22480;50.546;12.292;2022-12-11T08:33:11;-3.90;99.90
36458;DHT22;22480;50.546;12.292;2022-12-11T08:35:39;-3.90;99.90
36458;DHT22;22480;50.546;12.292;2022-12-11T08:38:05;-3.90;99.90
36458;DHT22;22480;50.546;12.292;2022-12-11T08:40:31;-3.80;99.90
36458;DHT22;22480;50.546;12.292;2022-12-11T08:42:57;-3.70;99.90
36458;DHT22;22480;50.546;12.292;2022-12-11T08:45:23;-3.50;99.90
36458;DHT22;22480;50.546;12.292;2022-12-11T08:47:48;-3.40;99.90
36458;DHT22;22480;50.546;12.292;2022-12-11T08:50:14;-3.30;99.90
36458;DHT22;22480;50.546;12.292;2022-12-11T08:52:40;-3.20;99.90
36458;DHT22;22480;50.546;12.292;2022-12-11T08:55:06;-3.10;99.90
36458;DHT22;22480;50.546;12.292;2022-12-11T08:57:32;-3.10;99.90
36458;DHT22;22480;50.546;12.292;2022-12-11T08:59:57;-3.00;99.90
36458;DHT22;22480;50.546;12.292;2022-12-11T09:02:23;-2.80;99.90
36458;DHT22;22480;50.546;12.292;2022-12-11T09:04:49;-2.50;99.90
36458;DHT22;22480;50.546;12.292;2022-12-11T09:07:15;-2.40;99.90
36458;DHT22;22480;50.546;12.292;2022-12-11T09:09:41;-2.30;99.90
36458;DHT22;22480;50.546;12.292;2022-12-11T09:12:06;-2.40;99.90
36458;DHT22;22480;50.546;12.292;2022-12-11T09:14:32;-2.60;99.90
36458;DHT22;22480;50.546;12.292;2022-12-11T09:16:58;-2.80;99.90
36458;DHT22;22480;50.546;12.292;2022-12-11T09:19:24;-2.80;99.90
36458;DHT22;22480;50.546;12.292;2022-12-11T09:21:50;-2.80;99.90
36458;DHT22;22480;50.546;12.292;2022-12-11T09:24:15;-2.80;99.90
36458;DHT22;22480;50.546;12.292;2022-12-11T09:26:41;-2.80;99.90
36458;DHT22;22480;50.546;12.292;2022-12-11T09:29:07;-2.80;99.90
36458;DHT22;22480;50.546;12.292;2022-12-11T09:31:35;-2.90;99.90
36458;DHT22;22480;50.546;12.292;2022-12-11T09:34:07;-2.90;99.90
36458;DHT22;22480;50.546;12.292;2022-12-11T09:36:33;-2.80;99.90
36458;DHT22;22480;50.546;12.292;2022-12-11T09:39:01;-2.80;99.90
36458;DHT22;22480;50.546;12.292;2022-12-11T09:41:53;-2.80;99.90
36458;DHT22;22480;50.546;12.292;2022-12-11T09:44:28;-2.70;99.90
36458;DHT22;22480;50.546;12.292;2022-12-11T09:46:56;-2.40;99.90
36458;DHT22;22480;50.546;12.292;2022-12-11T09:49:27;-2.10;99.90
36458;DHT22;22480;50.546;12.292;2022-12-11T09:52:13;-1.80;99.90
36458;DHT22;22480;50.546;12.292;2022-12-11T09:54:57;-1.40;99.90
36458;DHT22;22480;50.546;12.292;2022-12-11T10:00:03;-1.20;99.90
36458;DHT22;22480;50.546;12.292;2022-12-11T10:08:02;-1.50;99.90
36458;DHT22;22480;50.546;12.292;2022-12-11T10:13:24;-1.60;99.90
36458;DHT22;22480;50.546;12.292;2022-12-11T10:18:34;-1.80;99.90
36458;DHT22;22480;50.546;12.292;2022-12-11T10:21:01;-1.80;99.90
36458;DHT22;22480;50.546;12.292;2022-12-11T10:23:33;-1.80;99.90
36458;DHT22;22480;50.546;12.292;2022-12-11T10:26:15;-1.90;99.90
36458;DHT22;22480;50.546;12.292;2022-12-11T10:28:41;-1.70;99.90
36458;DHT22;22480;50.546;12.292;2022-12-11T10:36:34;-1.40;99.90
36458;DHT22;22480;50.546;12.292;2022-12-11T10:39:02;-1.30;99.90
36458;DHT22;22480;50.546;12.292;2022-12-11T10:41:36;-1.20;99.90
36458;DHT22;22480;50.546;12.292;2022-12-11T10:44:22;-1.10;99.90
36458;DHT22;22480;50.546;12.292;2022-12-11T10:49:33;-1.30;99.90
36458;DHT22;22480;50.546;12.292;2022-12-11T10:52:00;-1.30;99.90
36458;DHT22;22480;50.546;12.292;2022-12-11T10:57:01;-1.30;99.90
36458;DHT22;22480;50.546;12.292;2022-12-11T10:59:37;-1.10;99.90
36458;DHT22;22480;50.546;12.292;2022-12-11T11:02:05;-1.00;99.90
36458;DHT22;22480;50.546;12.292;2022-12-11T11:04:35;-1.10;99.90
36458;DHT22;22480;50.546;12.292;2022-12-11T11:07:20;-1.00;99.90
36458;DHT22;22480;50.546;12.292;2022-12-11T11:09:48;-0.80;99.90
36458;DHT22;22480;50.546;12.292;2022-12-11T11:12:20;-0.50;99.90
36458;DHT22;22480;50.546;12.292;2022-12-11T11:15:00;-0.40;99.90
36458;DHT22;22480;50.546;12.292;2022-12-11T11:17:26;-0.30;99.90
36458;DHT22;22480;50.546;12.292;2022-12-11T11:19:53;-0.50;99.90
36458;DHT22;22480;50.546;12.292;2022-12-11T11:22:20;-0.50;99.90
36458;DHT22;22480;50.546;12.292;2022-12-11T11:24:56;-0.70;99.90
36458;DHT22;22480;50.546;12.292;2022-12-11T11:27:34;-0.90;99.90
36458;DHT22;22480;50.546;12.292;2022-12-11T11:30:06;-0.90;99.90
36458;DHT22;22480;50.546;12.292;2022-12-11T11:32:41;-0.80;99.90
36458;DHT22;22480;50.546;12.292;2022-12-11T11:37:37;-1.00;99.90
36458;DHT22;22480;50.546;12.292;2022-12-11T11:40:18;-0.90;99.90
36458;DHT22;22480;50.546;12.292;2022-12-11T11:46:05;-0.40;99.90
36458;DHT22;22480;50.546;12.292;2022-12-11T11:53:44;-0.40;99.90
36458;DHT22;22480;50.546;12.292;2022-12-11T11:56:25;-0.20;99.90
36458;DHT22;22480;50.546;12.292;2022-12-11T11:58:53;-0.10;99.90
36458;DHT22;22480;50.546;12.292;2022-12-11T12:01:22;0.10;99.90
36458;DHT22;22480;50.546;12.292;2022-12-11T12:03:49;0.20;99.90
36458;DHT22;22480;50.546;12.292;2022-12-11T12:06:27;0.20;99.90
36458;DHT22;22480;50.546;12.292;2022-12-11T12:17:55;0.10;99.90
36458;DHT22;22480;50.546;12.292;2022-12-11T12:20:53;-0.10;99.90
36458;DHT22;22480;50.546;12.292;2022-12-11T12:26:05;-0.30;99.90
36458;DHT22;22480;50.546;12.292;2022-12-11T12:29:01;-0.40;99.90
36458;DHT22;22480;50.546;12.292;2022-12-11T12:40:19;-0.20;99.90
36458;DHT22;22480;50.546;12.292;2022-12-11T12:45:34;0.80;99.90
36458;DHT22;22480;50.546;12.292;2022-12-11T12:48:05;1.00;99.90
36458;DHT22;22480;50.546;12.292;2022-12-11T12:50:39;0.80;99.90
36458;DHT22;22480;50.546;12.292;2022-12-11T12:53:07;0.60;99.90
36458;DHT22;22480;50.546;12.292;2022-12-11T12:55:35;0.40;99.90
36458;DHT22;22480;50.546;12.292;2022-12-11T12:58:03;0.10;99.90
36458;DHT22;22480;50.546;12.292;2022-12-11T13:06:05;-0.60;99.90
36458;DHT22;22480;50.546;12.292;2022-12-11T13:09:18;-0.70;99.90
36458;DHT22;22480;50.546;12.292;2022-12-11T13:11:47;-0.90;99.90
36458;DHT22;22480;50.546;12.292;2022-12-11T13:16:48;-1.10;99.90
36458;DHT22;22480;50.546;12.292;2022-12-11T13:19:27;-1.20;99.90
36458;DHT22;22480;50.546;12.292;2022-12-11T13:24:31;-1.90;99.90
36458;DHT22;22480;50.546;12.292;2022-12-11T13:27:09;-2.20;99.90
36458;DHT22;22480;50.546;12.292;2022-12-11T13:29:40;-2.30;99.90
36458;DHT22;22480;50.546;12.292;2022-12-11T13:34:37;-2.60;99.90
36458;DHT22;22480;50.546;12.292;2022-12-11T13:37:04;-2.70;99.90
36458;DHT22;22480;50.546;12.292;2022-12-11T13:39:35;-2.70;99.90
36458;DHT22;22480;50.546;12.292;2022-12-11T13:42:05;-2.70;99.90
36458;DHT22;22480;50.546;12.292;2022-12-11T13:44:39;-2.80;99.90
36458;DHT22;22480;50.546;12.292;2022-12-11T13:47:11;-2.90;99.90
36458;DHT22;22480;50.546;12.292;2022-12-11T13:49:41;-3.00;99.90
36458;DHT22;22480;50.546;12.292;2022-12-11T13:52:22;-3.10;99.90
36458;DHT22;22480;50.546;12.292;2022-12-11T13:54:54;-3.20;99.90
36458;DHT22;22480;50.546;12.292;2022-12-11T13:57:22;-3.40;99.90
36458;DHT22;22480;50.546;12.292;2022-12-11T13:59:55;-3.40;99.90
36458;DHT22;22480;50.546;12.292;2022-12-11T14:02:30;-3.60;99.90
36458;DHT22;22480;50.546;12.292;2022-12-11T14:05:15;-3.70;99.90
36458;DHT22;22480;50.546;12.292;2022-12-11T14:07:49;-3.80;99.90
36458;DHT22;22480;50.546;12.292;2022-12-11T14:10:26;-3.90;99.90
36458;DHT22;22480;50.546;12.292;2022-12-11T14:12:55;-4.00;99.90
36458;DHT22;22480;50.546;12.292;2022-12-11T14:15:22;-4.00;99.90
36458;DHT22;22480;50.546;12.292;2022-12-11T14:17:48;-4.00;99.90
36458;DHT22;22480;50.546;12.292;2022-12-11T14:20:25;-4.10;99.90
36458;DHT22;22480;50.546;12.292;2022-12-11T14:23:49;-4.10;99.90
36458;DHT22;22480;50.546;12.292;2022-12-11T14:25:54;-4.10;99.90
36458;DHT22;22480;50.546;12.292;2022-12-11T14:28:21;-4.10;99.90
36458;DHT22;22480;50.546;12.292;2022-12-11T14:30:50;-4.10;99.90
36458;DHT22;22480;50.546;12.292;2022-12-11T14:33:17;-4.20;99.90
36458;DHT22;22480;50.546;12.292;2022-12-11T14:35:46;-4.20;99.90
36458;DHT22;22480;50.546;12.292;2022-12-11T14:38:19;-4.20;99.90
36458;DHT22;22480;50.546;12.292;2022-12-11T14:40:49;-4.30;99.90
36458;DHT22;22480;50.546;12.292;2022-12-11T14:43:40;-4.30;99.90
36458;DHT22;22480;50.546;12.292;2022-12-11T14:46:14;-4.40;99.90
36458;DHT22;22480;50.546;12.292;2022-12-11T14:48:49;-4.40;99.90
36458;DHT22;22480;50.546;12.292;2022-12-11T14:51:17;-4.50;99.90
36458;DHT22;22480;50.546;12.292;2022-12-11T14:53:46;-4.50;99.90
36458;DHT22;22480;50.546;12.292;2022-12-11T14:56:22;-4.50;99.90
36458;DHT22;22480;50.546;12.292;2022-12-11T14:59:01;-4.60;99.90
36458;DHT22;22480;50.546;12.292;2022-12-11T15:01:31;-4.60;99.90
36458;DHT22;22480;50.546;12.292;2022-12-11T15:04:06;-4.60;99.90
36458;DHT22;22480;50.546;12.292;2022-12-11T15:06:46;-4.70;99.90
36458;DHT22;22480;50.546;12.292;2022-12-11T15:11:57;-4.80;99.90
36458;DHT22;22480;50.546;12.292;2022-12-11T15:14:24;-4.80;99.90
36458;DHT22;22480;50.546;12.292;2022-12-11T15:16:53;-4.80;99.90
36458;DHT22;22480;50.546;12.292;2022-12-11T15:19:27;-4.80;99.90
36458;DHT22;22480;50.546;12.292;2022-12-11T15:21:54;-4.80;99.90
36458;DHT22;22480;50.546;12.292;2022-12-11T15:24:55;-4.80;99.90
36458;DHT22;22480;50.546;12.292;2022-12-11T15:27:36;-4.80;99.90
36458;DHT22;22480;50.546;12.292;2022-12-11T15:35:37;-4.80;99.90
36458;DHT22;22480;50.546;12.292;2022-12-11T15:38:03;-4.80;99.90
36458;DHT22;22480;50.546;12.292;2022-12-11T15:40:29;-4.90;99.90
36458;DHT22;22480;50.546;12.292;2022-12-11T15:42:55;-4.80;99.90
36458;DHT22;22480;50.546;12.292;2022-12-11T15:45:26;-4.90;99.90
36458;DHT22;22480;50.546;12.292;2022-12-11T15:47:55;-4.90;99.90
36458;DHT22;22480;50.546;12.292;2022-12-11T15:50:28;-4.90;99.90
36458;DHT22;22480;50.546;12.292;2022-12-11T15:52:55;-4.90;99.90
36458;DHT22;22480;50.546;12.292;2022-12-11T15:55:23;-4.90;99.90
36458;DHT22;22480;50.546;12.292;2022-12-11T15:57:53;-4.90;99.90
36458;DHT22;22480;50.546;12.292;2022-12-11T16:00:20;-4.90;99.90
36458;DHT22;22480;50.546;12.292;2022-12-11T16:02:46;-4.90;99.90
36458;DHT22;22480;50.546;12.292;2022-12-11T16:05:13;-4.90;99.90
36458;DHT22;22480;50.546;12.292;2022-12-11T16:07:39;-4.90;99.90
36458;DHT22;22480;50.546;12.292;2022-12-11T16:10:06;-4.90;99.90
36458;DHT22;22480;50.546;12.292;2022-12-11T16:12:32;-4.90;99.90
36458;DHT22;22480;50.546;12.292;2022-12-11T16:14:58;-4.90;99.90
36458;DHT22;22480;50.546;12.292;2022-12-11T16:17:24;-4.90;99.90
36458;DHT22;22480;50.546;12.292;2022-12-11T16:19:51;-4.90;99.90
36458;DHT22;22480;50.546;12.292;2022-12-11T16:22:17;-4.90;99.90
36458;DHT22;22480;50.546;12.292;2022-12-11T16:24:43;-4.90;99.90
36458;DHT22;22480;50.546;12.292;2022-12-11T16:27:09;-4.90;99.90
36458;DHT22;22480;50.546;12.292;2022-12-11T16:29:37;-5.00;99.90
36458;DHT22;22480;50.546;12.292;2022-12-11T16:32:03;-4.90;99.90
36458;DHT22;22480;50.546;12.292;2022-12-11T16:34:31;-5.00;99.90
36458;DHT22;22480;50.546;12.292;2022-12-11T16:36:58;-4.90;99.90
36458;DHT22;22480;50.546;12.292;2022-12-11T16:39:24;-4.90;99.90
36458;DHT22;22480;50.546;12.292;2022-12-11T16:41:49;-4.90;99.90
36458;DHT22;22480;50.546;12.292;2022-12-11T16:44:20;-4.90;99.90
36458;DHT22;22480;50.546;12.292;2022-12-11T16:46:47;-4.90;99.90
36458;DHT22;22480;50.546;12.292;2022-12-11T16:49:13;-4.90;99.90
36458;DHT22;22480;50.546;12.292;2022-12-11T16:51:39;-4.90;99.90
36458;DHT22;22480;50.546;12.292;2022-12-11T16:54:05;-5.00;99.90
36458;DHT22;22480;50.546;12.292;2022-12-11T16:56:31;-5.00;99.90
36458;DHT22;22480;50.546;12.292;2022-12-11T16:58:59;-5.00;99.90
36458;DHT22;22480;50.546;12.292;2022-12-11T17:01:25;-5.10;99.90
36458;DHT22;22480;50.546;12.292;2022-12-11T17:03:51;-5.10;99.90
36458;DHT22;22480;50.546;12.292;2022-12-11T17:06:17;-5.10;99.90
36458;DHT22;22480;50.546;12.292;2022-12-11T17:08:43;-5.10;99.90